createdAt,value
2023-02-13T00:01:01.888Z,90.00
2023-02-13T00:03:29.988Z,90.00
2023-02-13T00:05:57.906Z,90.00
2023-02-13T00:08:26.030Z,90.20
2023-02-13T00:10:53.945Z,90.10
2023-02-13T00:13:21.830Z,90.40
2023-02-13T00:15:56.980Z,90.30
2023-02-13T00:18:24.954Z,90.40
2023-02-13T00:21:03.160Z,90.50
2023-02-13T00:23:31.918Z,90.60
2023-02-13T00:26:00.116Z,90.70
2023-02-13T00:28:28.467Z,90.50
2023-02-13T00:31:02.864Z,90.80
2023-02-13T00:33:31.020Z,90.80
2023-02-13T00:36:04.975Z,90.70
2023-02-13T00:38:33.011Z,90.80
2023-02-13T00:41:00.911Z,90.80
2023-02-13T00:43:29.949Z,91.20
2023-02-13T00:45:59.177Z,90.90
2023-02-13T00:48:29.459Z,91.00
2023-02-13T00:50:58.578Z,91.00
2023-02-13T00:53:27.080Z,90.90
2023-02-13T00:55:55.275Z,91.10
2023-02-13T00:58:23.925Z,91.30
2023-02-13T01:00:53.128Z,91.30
2023-02-13T01:03:21.908Z,91.30
2023-02-13T01:05:50.377Z,91.30
2023-02-13T01:08:19.739Z,91.40
2023-02-13T01:10:48.974Z,91.40
2023-02-13T01:13:18.778Z,91.50
2023-02-13T01:15:47.586Z,91.50
2023-02-13T01:18:19.409Z,91.50
2023-02-13T01:20:56.483Z,91.40
2023-02-13T01:23:24.768Z,91.60
2023-02-13T01:25:52.921Z,91.50
2023-02-13T01:28:21.145Z,91.60
2023-02-13T01:30:56.791Z,91.70
2023-02-13T01:33:26.387Z,91.90
2023-02-13T01:35:54.842Z,92.10
2023-02-13T01:38:22.749Z,92.10
2023-02-13T01:40:51.800Z,92.20
2023-02-13T01:43:20.361Z,92.00
2023-02-13T01:45:50.999Z,92.20
2023-02-13T01:48:26.793Z,92.10
2023-02-13T01:50:58.176Z,92.10
2023-02-13T01:53:26.231Z,92.20
2023-02-13T01:55:56.466Z,92.30
2023-02-13T01:58:26.854Z,92.40
2023-02-13T02:00:55.079Z,92.50
2023-02-13T02:03:36.090Z,92.60
2023-02-13T02:06:09.430Z,92.80
2023-02-13T02:08:39.729Z,93.00
2023-02-13T02:11:16.488Z,92.90
2023-02-13T02:13:45.314Z,92.90
2023-02-13T02:16:13.561Z,93.10
2023-02-13T02:18:41.864Z,93.10
2023-02-13T02:21:09.771Z,93.40
2023-02-13T02:23:40.776Z,93.40
2023-02-13T02:26:31.006Z,93.50
2023-02-13T02:29:17.358Z,93.80
2023-02-13T02:31:51.529Z,94.00
2023-02-13T02:34:22.798Z,94.00
2023-02-13T02:37:09.542Z,94.00
2023-02-13T02:39:54.769Z,93.90
2023-02-13T02:42:40.377Z,94.10
2023-02-13T02:45:26.561Z,94.10
2023-02-13T02:48:24.436Z,94.30
2023-02-13T02:50:54.674Z,94.50
2023-02-13T02:53:25.899Z,94.40
2023-02-13T02:56:14.405Z,94.50
2023-02-13T02:59:07.101Z,94.60
2023-02-13T03:01:54.795Z,94.70
2023-02-13T03:04:48.187Z,94.70
2023-02-13T03:07:17.682Z,94.70
2023-02-13T03:10:21.310Z,94.70
2023-02-13T03:13:16.386Z,94.70
2023-02-13T03:16:03.917Z,94.60
2023-02-13T03:18:52.140Z,94.80
2023-02-13T03:21:45.629Z,95.00
2023-02-13T03:24:22.946Z,95.00
2023-02-13T03:26:53.920Z,95.10
2023-02-13T03:29:58.894Z,95.20
2023-02-13T03:32:29.916Z,95.20
2023-02-13T03:35:23.151Z,95.20
2023-02-13T03:37:57.090Z,95.10
2023-02-13T03:40:36.086Z,95.20
2023-02-13T03:43:13.292Z,95.10
2023-02-13T03:45:55.002Z,95.00
2023-02-13T03:48:46.575Z,95.00
2023-02-13T03:51:17.846Z,95.10
2023-02-13T03:53:47.428Z,95.00
2023-02-13T03:56:34.453Z,94.90
2023-02-13T03:59:15.731Z,95.00
2023-02-13T04:01:49.593Z,95.10
2023-02-13T04:04:28.947Z,95.00
2023-02-13T04:07:07.610Z,95.20
2023-02-13T04:09:37.787Z,95.30
2023-02-13T04:12:22.404Z,95.30
2023-02-13T04:14:53.627Z,95.30
2023-02-13T04:17:27.723Z,95.20
2023-02-13T04:19:56.288Z,95.40
2023-02-13T04:22:24.698Z,95.40
2023-02-13T04:24:52.723Z,95.20
2023-02-13T04:27:20.792Z,95.40
2023-02-13T04:29:48.682Z,95.30
2023-02-13T04:32:17.770Z,95.30
2023-02-13T04:34:45.689Z,95.50
2023-02-13T04:37:16.182Z,95.40
2023-02-13T04:39:44.274Z,95.30
2023-02-13T04:42:12.291Z,95.40
2023-02-13T04:44:40.268Z,95.40
2023-02-13T04:47:08.360Z,95.50
2023-02-13T04:49:36.319Z,95.40
2023-02-13T04:52:04.436Z,95.40
2023-02-13T04:54:32.433Z,95.40
2023-02-13T04:57:00.499Z,95.40
2023-02-13T04:59:28.490Z,95.50
2023-02-13T05:01:56.522Z,95.50
2023-02-13T05:04:27.376Z,95.60
2023-02-13T05:06:55.585Z,95.50
2023-02-13T05:09:23.645Z,95.60
2023-02-13T05:11:52.236Z,95.60
2023-02-13T05:14:20.519Z,95.50
2023-02-13T05:16:50.095Z,95.60
2023-02-13T05:19:17.936Z,95.60
2023-02-13T05:22:04.457Z,95.50
2023-02-13T05:24:32.545Z,95.50
2023-02-13T05:27:00.507Z,95.60
2023-02-13T05:29:28.489Z,95.60
2023-02-13T05:31:57.834Z,95.60
2023-02-13T05:34:26.801Z,95.50
2023-02-13T05:36:54.858Z,95.40
2023-02-13T05:39:22.776Z,95.30
2023-02-13T05:41:50.862Z,95.40
2023-02-13T05:44:18.784Z,95.30
2023-02-13T05:46:46.715Z,95.40
2023-02-13T05:49:15.582Z,95.40
2023-02-13T05:51:43.903Z,95.20
2023-02-13T05:54:11.752Z,95.20
2023-02-13T05:56:39.838Z,95.10
2023-02-13T05:59:07.813Z,95.10
2023-02-13T06:01:35.745Z,95.10
2023-02-13T06:04:04.151Z,95.40
2023-02-13T06:06:32.112Z,95.00
2023-02-13T06:09:00.028Z,95.40
2023-02-13T06:11:28.160Z,94.90
2023-02-13T06:13:56.241Z,94.80
2023-02-13T06:16:24.405Z,94.60
2023-02-13T06:18:52.564Z,94.50
2023-02-13T06:21:21.250Z,94.20
2023-02-13T06:23:49.929Z,94.20
2023-02-13T06:26:17.920Z,93.80
2023-02-13T06:28:45.870Z,93.40
2023-02-13T06:31:14.022Z,93.00
2023-02-13T06:33:41.926Z,92.60
2023-02-13T06:36:10.096Z,92.20
2023-02-13T06:38:40.731Z,92.00
2023-02-13T06:41:08.792Z,91.80
2023-02-13T06:43:38.541Z,91.40
2023-02-13T06:46:08.815Z,90.40
2023-02-13T06:48:36.791Z,89.40
2023-02-13T06:51:04.956Z,87.50
2023-02-13T06:53:32.947Z,86.30
2023-02-13T06:56:03.864Z,85.60
2023-02-13T06:58:32.718Z,84.60
2023-02-13T07:01:00.940Z,83.90
2023-02-13T07:03:29.117Z,83.10
2023-02-13T07:05:57.234Z,82.50
2023-02-13T07:08:25.286Z,81.60
2023-02-13T07:10:53.252Z,81.10
2023-02-13T07:13:21.201Z,81.10
2023-02-13T07:15:49.713Z,80.60
2023-02-13T07:18:17.721Z,79.50
2023-02-13T07:20:45.585Z,79.40
2023-02-13T07:23:13.707Z,79.20
2023-02-13T07:25:41.618Z,78.50
2023-02-13T07:28:10.379Z,78.00
2023-02-13T07:30:38.844Z,77.10
2023-02-13T07:33:06.820Z,76.60
2023-02-13T07:35:36.273Z,75.80
2023-02-13T07:38:05.121Z,75.60
2023-02-13T07:40:33.135Z,75.10
2023-02-13T07:43:01.938Z,74.70
2023-02-13T07:45:30.150Z,74.10
2023-02-13T07:47:58.706Z,74.60
2023-02-13T07:50:27.155Z,73.10
2023-02-13T07:52:59.074Z,72.70
2023-02-13T07:55:27.865Z,71.70
2023-02-13T07:57:56.093Z,70.90
2023-02-13T08:00:24.063Z,70.00
2023-02-13T08:02:52.034Z,69.00
2023-02-13T08:05:20.072Z,67.90
2023-02-13T08:07:47.991Z,67.00
2023-02-13T08:10:35.178Z,66.00
2023-02-13T08:13:03.696Z,64.80
2023-02-13T08:15:31.602Z,63.40
2023-02-13T08:17:59.710Z,62.20
2023-02-13T08:20:27.728Z,61.00
2023-02-13T08:23:02.473Z,59.80
2023-02-13T08:25:30.732Z,58.80
2023-02-13T08:27:59.836Z,57.70
2023-02-13T08:30:29.144Z,56.80
2023-02-13T08:32:57.337Z,55.90
2023-02-13T08:35:27.485Z,55.00
2023-02-13T08:37:55.620Z,54.20
2023-02-13T08:40:25.448Z,53.30
2023-02-13T08:42:59.511Z,52.30
2023-02-13T08:45:27.477Z,51.40
2023-02-13T08:47:57.091Z,50.40
2023-02-13T08:50:25.218Z,49.70
2023-02-13T08:52:56.192Z,49.10
2023-02-13T08:55:24.462Z,45.30
2023-02-13T08:57:52.459Z,43.30
2023-02-13T09:00:20.827Z,45.30
2023-02-13T09:02:49.012Z,42.10
2023-02-13T09:05:17.079Z,40.10
2023-02-13T09:07:45.318Z,41.70
2023-02-13T09:10:13.197Z,39.30
2023-02-13T09:12:41.276Z,38.30
2023-02-13T09:15:09.454Z,38.40
2023-02-13T09:17:37.573Z,39.80
2023-02-13T09:20:06.453Z,37.50
2023-02-13T09:22:34.536Z,38.40
2023-02-13T09:25:04.582Z,36.10
2023-02-13T09:27:32.622Z,37.00
2023-02-13T09:30:01.487Z,35.20
2023-02-13T09:32:29.558Z,35.60
2023-02-13T09:34:57.506Z,35.40
2023-02-13T09:37:25.724Z,33.70
2023-02-13T09:39:53.736Z,34.10
2023-02-13T09:42:27.519Z,33.80
2023-02-13T09:45:01.070Z,32.50
2023-02-13T09:47:36.572Z,30.90
2023-02-13T09:50:12.585Z,31.30
2023-02-13T09:52:44.594Z,31.60
2023-02-13T09:55:17.310Z,30.40
2023-02-13T09:58:05.451Z,30.50
2023-02-13T10:00:35.042Z,31.70
2023-02-13T10:03:18.416Z,30.50
2023-02-13T10:06:05.314Z,29.20
2023-02-13T10:08:42.956Z,30.30
2023-02-13T10:11:23.247Z,29.20
2023-02-13T10:13:54.235Z,28.30
2023-02-13T10:16:28.899Z,29.30
2023-02-13T10:19:15.032Z,29.20
2023-02-13T10:21:51.258Z,27.20
2023-02-13T10:24:26.596Z,29.30
2023-02-13T10:26:57.225Z,28.50
2023-02-13T10:29:48.270Z,27.30
2023-02-13T10:32:18.603Z,28.10
2023-02-13T10:34:47.164Z,27.50
2023-02-13T10:37:16.750Z,27.20
2023-02-13T10:39:45.991Z,29.30
2023-02-13T10:42:26.294Z,29.00
2023-02-13T10:45:01.230Z,26.80
2023-02-13T10:47:39.916Z,27.10
2023-02-13T10:50:37.390Z,28.40
2023-02-13T10:53:25.326Z,27.30
2023-02-13T10:56:02.179Z,27.20
2023-02-13T10:59:02.460Z,25.90
2023-02-13T11:01:37.361Z,26.00
2023-02-13T11:04:12.319Z,26.40
2023-02-13T11:06:46.270Z,25.90
2023-02-13T11:09:14.441Z,26.30
2023-02-13T11:11:43.834Z,26.10
2023-02-13T11:14:16.199Z,26.30
2023-02-13T11:17:06.512Z,26.00
2023-02-13T11:19:34.543Z,25.30
2023-02-13T11:22:04.989Z,25.70
2023-02-13T11:24:33.262Z,25.70
2023-02-13T11:27:09.513Z,25.80
2023-02-13T11:29:38.684Z,25.70
2023-02-13T11:32:15.610Z,24.90
2023-02-13T11:34:43.708Z,24.70
2023-02-13T11:37:14.550Z,25.70
2023-02-13T11:39:43.533Z,24.60
2023-02-13T11:42:19.947Z,24.80
2023-02-13T11:44:56.165Z,25.00
2023-02-13T11:47:31.677Z,25.10
2023-02-13T11:50:00.253Z,25.90
2023-02-13T11:52:35.263Z,25.10
2023-02-13T11:55:23.249Z,25.50
2023-02-13T11:58:02.183Z,25.00
2023-02-13T12:00:31.525Z,25.10
2023-02-13T12:02:59.652Z,24.90
2023-02-13T12:05:28.584Z,25.70
2023-02-13T12:07:59.974Z,24.90
2023-02-13T12:10:29.046Z,25.30
2023-02-13T12:12:58.610Z,25.10
2023-02-13T12:15:31.154Z,25.50
2023-02-13T12:18:05.361Z,24.80
2023-02-13T12:20:37.656Z,25.50
2023-02-13T12:23:41.115Z,25.40
2023-02-13T12:26:18.046Z,25.30
2023-02-13T12:28:51.970Z,25.70
2023-02-13T12:31:40.629Z,25.80
2023-02-13T12:34:15.945Z,25.30
2023-02-13T12:37:14.073Z,25.50
2023-02-13T12:39:45.788Z,25.30
2023-02-13T12:42:19.880Z,25.80
2023-02-13T12:44:52.995Z,26.30
2023-02-13T12:47:31.794Z,25.20
2023-02-13T12:50:05.505Z,25.90
2023-02-13T12:52:33.431Z,25.20
2023-02-13T12:55:21.178Z,25.40
2023-02-13T12:58:08.044Z,26.10
2023-02-13T13:00:36.129Z,26.10
2023-02-13T13:03:19.244Z,25.70
2023-02-13T13:06:12.882Z,25.60
2023-02-13T13:09:00.657Z,26.50
2023-02-13T13:11:43.796Z,25.60
2023-02-13T13:14:11.670Z,26.20
2023-02-13T13:16:49.916Z,26.80
2023-02-13T13:19:20.716Z,26.20
2023-02-13T13:22:01.321Z,26.60
2023-02-13T13:24:29.197Z,27.20
2023-02-13T13:26:58.139Z,26.40
2023-02-13T13:29:28.729Z,27.10
2023-02-13T13:32:00.156Z,28.00
2023-02-13T13:34:31.565Z,27.10
2023-02-13T13:37:17.395Z,27.80
2023-02-13T13:39:54.719Z,28.70
2023-02-13T13:42:39.620Z,28.20
2023-02-13T13:45:37.155Z,28.10
2023-02-13T13:48:23.991Z,28.70
2023-02-13T13:50:52.293Z,28.10
2023-02-13T13:53:21.321Z,29.60
2023-02-13T13:56:03.129Z,29.10
2023-02-13T13:58:41.775Z,28.20
2023-02-13T14:01:18.870Z,30.00
2023-02-13T14:03:52.802Z,29.60
2023-02-13T14:06:25.482Z,29.00
2023-02-13T14:08:55.924Z,30.20
2023-02-13T14:11:33.280Z,29.80
2023-02-13T14:14:01.531Z,28.80
2023-02-13T14:16:45.689Z,30.50
2023-02-13T14:19:29.335Z,30.30
2023-02-13T14:22:17.534Z,29.50
2023-02-13T14:24:54.667Z,31.10
2023-02-13T14:27:24.344Z,31.20
2023-02-13T14:29:52.533Z,29.80
2023-02-13T14:32:25.923Z,30.80
2023-02-13T14:34:59.664Z,31.70
2023-02-13T14:37:37.113Z,31.70
2023-02-13T14:40:29.373Z,30.50
2023-02-13T14:43:02.786Z,32.40
2023-02-13T14:45:36.861Z,32.80
2023-02-13T14:48:12.908Z,32.60
2023-02-13T14:50:46.271Z,33.20
2023-02-13T14:53:20.487Z,34.40
2023-02-13T14:55:51.126Z,35.30
2023-02-13T14:58:28.535Z,37.00
2023-02-13T15:01:02.764Z,38.30
2023-02-13T15:03:30.706Z,39.60
2023-02-13T15:06:01.598Z,40.70
2023-02-13T15:08:33.068Z,41.80
2023-02-13T15:11:01.213Z,42.50
2023-02-13T15:13:33.438Z,43.10
2023-02-13T15:16:04.155Z,44.00
2023-02-13T15:18:35.570Z,44.60
2023-02-13T15:21:03.460Z,45.20
2023-02-13T15:23:32.039Z,45.90
2023-02-13T15:26:08.928Z,46.40
2023-02-13T15:28:37.162Z,46.90
2023-02-13T15:31:06.671Z,47.50
2023-02-13T15:33:43.568Z,48.10
2023-02-13T15:36:19.429Z,48.50
2023-02-13T15:38:47.556Z,49.00
2023-02-13T15:41:20.663Z,49.40
2023-02-13T15:43:53.744Z,50.00
2023-02-13T15:46:30.102Z,50.50
2023-02-13T15:49:17.324Z,50.70
2023-02-13T15:51:45.797Z,51.60
2023-02-13T15:54:33.121Z,51.80
2023-02-13T15:57:02.928Z,52.30
2023-02-13T15:59:37.888Z,52.50
2023-02-13T16:02:10.101Z,52.70
2023-02-13T16:04:38.250Z,53.10
2023-02-13T16:07:11.354Z,53.50
2023-02-13T16:09:39.398Z,54.00
2023-02-13T16:12:19.390Z,54.60
2023-02-13T16:14:53.162Z,55.00
2023-02-13T16:17:28.205Z,55.30
2023-02-13T16:20:01.578Z,56.00
2023-02-13T16:22:34.833Z,56.10
2023-02-13T16:25:17.279Z,56.60
2023-02-13T16:28:06.113Z,56.90
2023-02-13T16:30:41.819Z,57.30
2023-02-13T16:33:15.798Z,57.70
2023-02-13T16:35:51.163Z,58.40
2023-02-13T16:38:22.241Z,58.70
2023-02-13T16:40:50.363Z,59.20
2023-02-13T16:43:37.670Z,59.90
2023-02-13T16:46:11.752Z,60.20
2023-02-13T16:48:39.836Z,60.40
2023-02-13T16:51:08.047Z,60.70
2023-02-13T16:53:36.565Z,60.60
2023-02-13T16:56:13.667Z,60.90
2023-02-13T16:58:41.999Z,60.90
2023-02-13T17:01:15.770Z,61.20
2023-02-13T17:03:44.207Z,61.40
2023-02-13T17:06:14.114Z,61.70
2023-02-13T17:08:43.316Z,62.20
2023-02-13T17:11:17.467Z,62.50
2023-02-13T17:13:45.447Z,62.90
2023-02-13T17:16:13.489Z,63.40
2023-02-13T17:18:41.422Z,63.50
2023-02-13T17:21:09.503Z,63.80
2023-02-13T17:23:37.360Z,64.40
2023-02-13T17:26:05.149Z,64.90
2023-02-13T17:28:33.384Z,65.20
2023-02-13T17:31:01.744Z,65.40
2023-02-13T17:33:30.998Z,65.70
2023-02-13T17:35:59.027Z,66.20
2023-02-13T17:38:27.016Z,66.60
2023-02-13T17:40:54.934Z,66.90
2023-02-13T17:43:23.257Z,66.80
2023-02-13T17:45:51.431Z,66.90
2023-02-13T17:48:19.540Z,67.20
2023-02-13T17:50:48.775Z,67.60
2023-02-13T17:53:33.042Z,67.70
2023-02-13T17:56:01.122Z,67.20
2023-02-13T17:58:29.087Z,67.40
2023-02-13T18:00:57.274Z,67.90
2023-02-13T18:03:25.735Z,68.30
2023-02-13T18:05:53.699Z,68.60
2023-02-13T18:08:21.520Z,68.70
2023-02-13T18:10:49.745Z,68.90
2023-02-13T18:13:17.862Z,69.00
2023-02-13T18:15:45.892Z,69.40
2023-02-13T18:18:16.241Z,70.00
2023-02-13T18:20:44.318Z,69.60
2023-02-13T18:23:12.390Z,69.60
2023-02-13T18:25:40.327Z,69.80
2023-02-13T18:28:08.372Z,70.40
2023-02-13T18:30:36.320Z,70.30
2023-02-13T18:33:05.406Z,70.50
2023-02-13T18:35:35.200Z,70.70
2023-02-13T18:38:03.288Z,70.70
2023-02-13T18:40:31.277Z,71.20
2023-02-13T18:42:59.697Z,71.30
2023-02-13T18:45:28.097Z,71.70
2023-02-13T18:47:55.948Z,71.80
2023-02-13T18:50:24.124Z,71.60
2023-02-13T18:52:51.963Z,72.20
2023-02-13T18:55:20.087Z,72.10
2023-02-13T18:57:48.327Z,72.10
2023-02-13T19:00:17.615Z,71.90
2023-02-13T19:02:45.485Z,72.30
2023-02-13T19:05:13.418Z,72.50
2023-02-13T19:07:41.380Z,72.80
2023-02-13T19:10:09.638Z,72.50
2023-02-13T19:12:37.627Z,72.70
2023-02-13T19:15:05.595Z,72.50
2023-02-13T19:17:34.667Z,72.50
2023-02-13T19:20:02.648Z,72.50
2023-02-13T19:22:30.613Z,72.70
2023-02-13T19:24:58.579Z,72.40
2023-02-13T19:27:26.483Z,72.90
2023-02-13T19:29:54.440Z,72.60
2023-02-13T19:32:22.316Z,72.70
2023-02-13T19:34:50.368Z,72.90
2023-02-13T19:37:18.329Z,72.80
2023-02-13T19:39:46.295Z,72.80
2023-02-13T19:42:14.433Z,73.00
2023-02-13T19:44:42.323Z,73.30
2023-02-13T19:47:10.672Z,73.20
2023-02-13T19:49:38.704Z,73.40
2023-02-13T19:52:06.727Z,73.20
2023-02-13T19:54:34.774Z,73.00
2023-02-13T19:57:05.575Z,73.50
2023-02-13T19:59:33.585Z,73.60
2023-02-13T20:02:01.632Z,74.20
2023-02-13T20:04:29.755Z,74.40
2023-02-13T20:06:58.709Z,74.80
2023-02-13T20:09:26.679Z,74.50
2023-02-13T20:11:54.555Z,75.50
2023-02-13T20:14:22.520Z,76.90
2023-02-13T20:16:51.732Z,76.40
2023-02-13T20:19:19.628Z,77.00
2023-02-13T20:21:49.796Z,76.60
2023-02-13T20:24:17.874Z,77.20
2023-02-13T20:26:45.908Z,77.70
2023-02-13T20:29:13.906Z,77.90
2023-02-13T20:31:42.022Z,78.40
2023-02-13T20:34:10.812Z,78.80
2023-02-13T20:36:39.557Z,78.60
2023-02-13T20:39:08.462Z,78.60
2023-02-13T20:41:37.208Z,79.20
2023-02-13T20:44:06.582Z,79.40
2023-02-13T20:46:35.760Z,79.60
2023-02-13T20:49:04.015Z,79.40
2023-02-13T20:51:32.144Z,79.00
2023-02-13T20:54:00.805Z,79.00
2023-02-13T20:56:29.780Z,78.90
2023-02-13T20:58:59.011Z,79.60
2023-02-13T21:01:32.588Z,79.80
2023-02-13T21:04:01.106Z,78.90
2023-02-13T21:06:33.191Z,79.90
2023-02-13T21:09:01.835Z,80.00
2023-02-13T21:11:30.311Z,80.70
2023-02-13T21:13:58.325Z,80.70
2023-02-13T21:16:28.055Z,80.70
2023-02-13T21:18:58.094Z,81.50
2023-02-13T21:21:27.644Z,81.80
2023-02-13T21:23:56.837Z,81.70
2023-02-13T21:26:25.695Z,83.00
2023-02-13T21:28:53.872Z,82.10
2023-02-13T21:31:25.849Z,82.20
2023-02-13T21:33:53.979Z,82.50
2023-02-13T21:36:21.967Z,82.80
2023-02-13T21:38:50.031Z,83.10
2023-02-13T21:41:19.081Z,83.90
2023-02-13T21:43:49.613Z,83.70
2023-02-13T21:46:19.471Z,83.70
2023-02-13T21:48:47.917Z,84.00
2023-02-13T21:51:17.821Z,84.30
2023-02-13T21:53:46.207Z,85.20
2023-02-13T21:56:15.995Z,85.60
2023-02-13T21:58:44.869Z,86.30
2023-02-13T22:01:25.516Z,86.90
2023-02-13T22:03:56.084Z,87.00
2023-02-13T22:06:25.182Z,85.70
2023-02-13T22:09:00.277Z,86.00
2023-02-13T22:11:28.673Z,86.00
2023-02-13T22:13:57.818Z,86.00
2023-02-13T22:16:25.921Z,86.40
2023-02-13T22:18:54.032Z,86.50
2023-02-13T22:21:23.658Z,86.70
2023-02-13T22:23:51.926Z,86.50
2023-02-13T22:26:21.824Z,86.50
2023-02-13T22:28:50.364Z,86.80
2023-02-13T22:31:19.023Z,86.90
2023-02-13T22:33:55.225Z,86.80
2023-02-13T22:36:30.593Z,86.80
2023-02-13T22:38:58.659Z,87.00
2023-02-13T22:41:27.144Z,87.10
2023-02-13T22:43:55.838Z,87.70
2023-02-13T22:46:25.955Z,88.30
2023-02-13T22:48:54.284Z,88.30
2023-02-13T22:51:27.638Z,89.00
2023-02-13T22:53:56.442Z,89.20
2023-02-13T22:56:24.982Z,89.10
2023-02-13T22:58:53.247Z,89.70
2023-02-13T23:01:22.913Z,89.30
2023-02-13T23:03:50.892Z,89.00
2023-02-13T23:06:19.570Z,89.00
2023-02-13T23:08:52.800Z,88.60
2023-02-13T23:11:40.580Z,88.70
2023-02-13T23:14:11.920Z,89.00
2023-02-13T23:16:58.601Z,89.30
2023-02-13T23:19:27.879Z,89.20
2023-02-13T23:21:56.716Z,89.40
2023-02-13T23:24:25.059Z,89.80
2023-02-13T23:26:52.957Z,90.00
2023-02-13T23:29:23.264Z,90.20
2023-02-13T23:31:52.064Z,90.00
2023-02-13T23:34:20.962Z,90.30
2023-02-13T23:36:48.998Z,90.40
2023-02-13T23:39:17.059Z,90.50
2023-02-13T23:41:49.540Z,90.80
2023-02-13T23:44:17.896Z,91.00
2023-02-13T23:46:45.862Z,91.10
2023-02-13T23:49:14.304Z,91.20
2023-02-13T23:51:42.898Z,91.30
2023-02-13T23:54:14.456Z,91.20
2023-02-13T23:56:42.761Z,91.00
2023-02-13T23:59:10.766Z,90.90
